sensor_id;sensor_type;location;lat;lon;timestamp;P1;durP1;ratioP1;P2;durP2;ratioP2
56141;SDS011;42018;48.588;10.836;2024-01-27T00:00:50;6.90;;;2.10;;
56141;SDS011;42018;48.588;10.836;2024-01-27T00:03:36;8.32;;;2.22;;
56141;SDS011;42018;48.588;10.836;2024-01-27T00:06:21;5.05;;;1.90;;
56141;SDS011;42018;48.588;10.836;2024-01-27T00:09:07;3.38;;;1.65;;
56141;SDS011;42018;48.588;10.836;2024-01-27T00:11:53;3.67;;;1.70;;
56141;SDS011;42018;48.588;10.836;2024-01-27T00:14:38;4.68;;;2.28;;
56141;SDS011;42018;48.588;10.836;2024-01-27T00:17:24;5.82;;;2.30;;
56141;SDS011;42018;48.588;10.836;2024-01-27T00:20:11;6.85;;;2.72;;
56141;SDS011;42018;48.588;10.836;2024-01-27T00:22:57;6.03;;;1.80;;
56141;SDS011;42018;48.588;10.836;2024-01-27T00:25:42;4.97;;;1.95;;
56141;SDS011;42018;48.588;10.836;2024-01-27T00:28:28;4.72;;;2.00;;
56141;SDS011;42018;48.588;10.836;2024-01-27T00:31:13;5.55;;;2.45;;
56141;SDS011;42018;48.588;10.836;2024-01-27T00:33:59;5.05;;;2.08;;
56141;SDS011;42018;48.588;10.836;2024-01-27T00:36:45;5.88;;;2.55;;
56141;SDS011;42018;48.588;10.836;2024-01-27T00:39:33;6.57;;;2.00;;
56141;SDS011;42018;48.588;10.836;2024-01-27T00:42:19;6.95;;;2.78;;
56141;SDS011;42018;48.588;10.836;2024-01-27T00:45:09;8.60;;;2.35;;
56141;SDS011;42018;48.588;10.836;2024-01-27T00:47:54;7.00;;;2.60;;
56141;SDS011;42018;48.588;10.836;2024-01-27T00:50:40;5.65;;;2.85;;
56141;SDS011;42018;48.588;10.836;2024-01-27T00:53:25;6.13;;;2.42;;
56141;SDS011;42018;48.588;10.836;2024-01-27T00:56:11;6.40;;;2.70;;
56141;SDS011;42018;48.588;10.836;2024-01-27T00:58:56;7.13;;;2.60;;
56141;SDS011;42018;48.588;10.836;2024-01-27T01:01:42;5.70;;;2.47;;
56141;SDS011;42018;48.588;10.836;2024-01-27T01:04:27;7.45;;;2.78;;
56141;SDS011;42018;48.588;10.836;2024-01-27T01:07:13;6.75;;;2.90;;
56141;SDS011;42018;48.588;10.836;2024-01-27T01:09:59;5.22;;;2.70;;
56141;SDS011;42018;48.588;10.836;2024-01-27T01:12:44;6.55;;;2.40;;
56141;SDS011;42018;48.588;10.836;2024-01-27T01:15:30;6.47;;;2.60;;
56141;SDS011;42018;48.588;10.836;2024-01-27T01:18:15;5.97;;;2.70;;
56141;SDS011;42018;48.588;10.836;2024-01-27T01:21:01;6.10;;;2.45;;
56141;SDS011;42018;48.588;10.836;2024-01-27T01:23:46;7.28;;;3.28;;
56141;SDS011;42018;48.588;10.836;2024-01-27T01:26:32;5.05;;;2.42;;
56141;SDS011;42018;48.588;10.836;2024-01-27T01:29:18;5.65;;;2.80;;
56141;SDS011;42018;48.588;10.836;2024-01-27T01:32:03;9.35;;;2.78;;
56141;SDS011;42018;48.588;10.836;2024-01-27T01:34:49;7.00;;;3.20;;
56141;SDS011;42018;48.588;10.836;2024-01-27T01:37:35;5.63;;;2.67;;
56141;SDS011;42018;48.588;10.836;2024-01-27T01:40:21;6.95;;;2.60;;
56141;SDS011;42018;48.588;10.836;2024-01-27T01:43:10;5.13;;;2.03;;
56141;SDS011;42018;48.588;10.836;2024-01-27T01:45:58;6.45;;;2.53;;
56141;SDS011;42018;48.588;10.836;2024-01-27T01:48:44;6.60;;;2.30;;
56141;SDS011;42018;48.588;10.836;2024-01-27T01:51:30;5.50;;;2.60;;
56141;SDS011;42018;48.588;10.836;2024-01-27T01:54:15;6.90;;;2.45;;
56141;SDS011;42018;48.588;10.836;2024-01-27T01:57:01;8.43;;;3.13;;
56141;SDS011;42018;48.588;10.836;2024-01-27T01:59:48;4.38;;;2.30;;
56141;SDS011;42018;48.588;10.836;2024-01-27T02:02:34;5.18;;;2.60;;
56141;SDS011;42018;48.588;10.836;2024-01-27T02:05:19;6.18;;;2.67;;
56141;SDS011;42018;48.588;10.836;2024-01-27T02:08:05;9.38;;;2.60;;
56141;SDS011;42018;48.588;10.836;2024-01-27T02:10:51;6.43;;;2.35;;
56141;SDS011;42018;48.588;10.836;2024-01-27T02:13:37;5.90;;;2.30;;
56141;SDS011;42018;48.588;10.836;2024-01-27T02:16:22;6.18;;;2.55;;
56141;SDS011;42018;48.588;10.836;2024-01-27T02:19:08;5.38;;;2.55;;
56141;SDS011;42018;48.588;10.836;2024-01-27T02:21:53;5.68;;;2.50;;
56141;SDS011;42018;48.588;10.836;2024-01-27T02:24:39;7.68;;;2.50;;
56141;SDS011;42018;48.588;10.836;2024-01-27T02:27:24;8.60;;;2.78;;
56141;SDS011;42018;48.588;10.836;2024-01-27T02:30:10;6.93;;;2.67;;
56141;SDS011;42018;48.588;10.836;2024-01-27T02:32:56;6.28;;;2.30;;
56141;SDS011;42018;48.588;10.836;2024-01-27T02:35:43;9.25;;;2.70;;
56141;SDS011;42018;48.588;10.836;2024-01-27T02:38:29;6.32;;;2.45;;
56141;SDS011;42018;48.588;10.836;2024-01-27T02:41:14;6.43;;;2.40;;
56141;SDS011;42018;48.588;10.836;2024-01-27T02:44:00;7.47;;;2.75;;
56141;SDS011;42018;48.588;10.836;2024-01-27T02:46:45;8.52;;;2.38;;
56141;SDS011;42018;48.588;10.836;2024-01-27T02:49:31;5.43;;;2.47;;
56141;SDS011;42018;48.588;10.836;2024-01-27T02:52:16;6.53;;;2.72;;
56141;SDS011;42018;48.588;10.836;2024-01-27T02:55:02;6.68;;;2.60;;
56141;SDS011;42018;48.588;10.836;2024-01-27T02:57:48;9.15;;;2.83;;
56141;SDS011;42018;48.588;10.836;2024-01-27T03:00:33;7.25;;;2.45;;
56141;SDS011;42018;48.588;10.836;2024-01-27T03:03:19;7.78;;;2.95;;
56141;SDS011;42018;48.588;10.836;2024-01-27T03:06:04;6.70;;;2.78;;
56141;SDS011;42018;48.588;10.836;2024-01-27T03:08:50;7.68;;;2.80;;
56141;SDS011;42018;48.588;10.836;2024-01-27T03:11:35;7.38;;;3.00;;
56141;SDS011;42018;48.588;10.836;2024-01-27T03:14:21;5.57;;;2.88;;
56141;SDS011;42018;48.588;10.836;2024-01-27T03:17:07;8.13;;;2.90;;
56141;SDS011;42018;48.588;10.836;2024-01-27T03:19:53;7.82;;;2.97;;
56141;SDS011;42018;48.588;10.836;2024-01-27T03:22:38;5.13;;;2.40;;
56141;SDS011;42018;48.588;10.836;2024-01-27T03:25:25;7.00;;;3.03;;
56141;SDS011;42018;48.588;10.836;2024-01-27T03:28:13;10.77;;;3.08;;
56141;SDS011;42018;48.588;10.836;2024-01-27T03:30:58;7.43;;;2.50;;
56141;SDS011;42018;48.588;10.836;2024-01-27T03:33:44;6.78;;;2.60;;
56141;SDS011;42018;48.588;10.836;2024-01-27T03:36:30;6.70;;;2.65;;
56141;SDS011;42018;48.588;10.836;2024-01-27T03:39:16;8.18;;;2.78;;
56141;SDS011;42018;48.588;10.836;2024-01-27T03:42:01;8.13;;;2.67;;
56141;SDS011;42018;48.588;10.836;2024-01-27T03:44:47;6.60;;;2.78;;
56141;SDS011;42018;48.588;10.836;2024-01-27T03:47:33;6.32;;;3.15;;
56141;SDS011;42018;48.588;10.836;2024-01-27T03:50:18;7.63;;;3.08;;
56141;SDS011;42018;48.588;10.836;2024-01-27T03:53:04;5.57;;;2.88;;
56141;SDS011;42018;48.588;10.836;2024-01-27T03:55:49;7.10;;;2.88;;
56141;SDS011;42018;48.588;10.836;2024-01-27T03:58:35;7.18;;;2.80;;
56141;SDS011;42018;48.588;10.836;2024-01-27T04:01:20;7.63;;;2.70;;
56141;SDS011;42018;48.588;10.836;2024-01-27T04:04:06;6.43;;;2.90;;
56141;SDS011;42018;48.588;10.836;2024-01-27T04:06:52;7.82;;;3.08;;
56141;SDS011;42018;48.588;10.836;2024-01-27T04:09:37;5.38;;;2.65;;
56141;SDS011;42018;48.588;10.836;2024-01-27T04:12:23;5.78;;;2.75;;
56141;SDS011;42018;48.588;10.836;2024-01-27T04:15:08;7.40;;;3.10;;
56141;SDS011;42018;48.588;10.836;2024-01-27T04:17:55;5.97;;;3.00;;
56141;SDS011;42018;48.588;10.836;2024-01-27T04:20:41;8.15;;;3.42;;
56141;SDS011;42018;48.588;10.836;2024-01-27T04:23:26;6.70;;;3.00;;
56141;SDS011;42018;48.588;10.836;2024-01-27T04:26:12;9.80;;;3.55;;
56141;SDS011;42018;48.588;10.836;2024-01-27T04:28:57;7.32;;;3.28;;
56141;SDS011;42018;48.588;10.836;2024-01-27T04:31:43;5.22;;;3.22;;
56141;SDS011;42018;48.588;10.836;2024-01-27T04:34:28;6.25;;;2.92;;
56141;SDS011;42018;48.588;10.836;2024-01-27T04:37:14;6.72;;;3.47;;
56141;SDS011;42018;48.588;10.836;2024-01-27T04:40:00;12.02;;;3.53;;
56141;SDS011;42018;48.588;10.836;2024-01-27T04:42:45;8.20;;;3.17;;
56141;SDS011;42018;48.588;10.836;2024-01-27T04:45:31;7.38;;;3.00;;
56141;SDS011;42018;48.588;10.836;2024-01-27T04:48:16;5.65;;;3.15;;
56141;SDS011;42018;48.588;10.836;2024-01-27T04:51:02;6.80;;;2.92;;
56141;SDS011;42018;48.588;10.836;2024-01-27T04:53:48;7.65;;;2.97;;
56141;SDS011;42018;48.588;10.836;2024-01-27T04:56:34;7.25;;;3.40;;
56141;SDS011;42018;48.588;10.836;2024-01-27T04:59:19;8.95;;;3.30;;
56141;SDS011;42018;48.588;10.836;2024-01-27T05:02:05;7.85;;;3.00;;
56141;SDS011;42018;48.588;10.836;2024-01-27T05:04:50;7.78;;;3.40;;
56141;SDS011;42018;48.588;10.836;2024-01-27T05:07:36;7.55;;;3.60;;
56141;SDS011;42018;48.588;10.836;2024-01-27T05:10:21;11.80;;;4.72;;
56141;SDS011;42018;48.588;10.836;2024-01-27T05:13:07;11.02;;;4.28;;
56141;SDS011;42018;48.588;10.836;2024-01-27T05:15:53;10.00;;;3.80;;
56141;SDS011;42018;48.588;10.836;2024-01-27T05:18:38;8.02;;;3.53;;
56141;SDS011;42018;48.588;10.836;2024-01-27T05:21:24;8.02;;;3.95;;
56141;SDS011;42018;48.588;10.836;2024-01-27T05:24:09;6.13;;;3.38;;
56141;SDS011;42018;48.588;10.836;2024-01-27T05:26:55;7.65;;;3.30;;
56141;SDS011;42018;48.588;10.836;2024-01-27T05:29:40;9.43;;;3.33;;
56141;SDS011;42018;48.588;10.836;2024-01-27T05:32:26;10.15;;;3.63;;
56141;SDS011;42018;48.588;10.836;2024-01-27T05:35:12;6.80;;;2.92;;
56141;SDS011;42018;48.588;10.836;2024-01-27T05:37:57;5.68;;;2.83;;
56141;SDS011;42018;48.588;10.836;2024-01-27T05:40:43;8.40;;;3.28;;
56141;SDS011;42018;48.588;10.836;2024-01-27T05:43:30;8.82;;;3.47;;
56141;SDS011;42018;48.588;10.836;2024-01-27T05:46:16;11.38;;;5.40;;
56141;SDS011;42018;48.588;10.836;2024-01-27T05:49:01;7.68;;;5.22;;
56141;SDS011;42018;48.588;10.836;2024-01-27T05:51:48;9.05;;;4.40;;
56141;SDS011;42018;48.588;10.836;2024-01-27T05:54:35;7.90;;;5.15;;
56141;SDS011;42018;48.588;10.836;2024-01-27T05:57:21;11.05;;;5.82;;
56141;SDS011;42018;48.588;10.836;2024-01-27T06:00:07;9.70;;;5.65;;
56141;SDS011;42018;48.588;10.836;2024-01-27T06:02:54;17.38;;;10.18;;
56141;SDS011;42018;48.588;10.836;2024-01-27T06:05:40;12.60;;;6.30;;
56141;SDS011;42018;48.588;10.836;2024-01-27T06:08:27;16.35;;;12.95;;
56141;SDS011;42018;48.588;10.836;2024-01-27T06:11:12;21.92;;;18.92;;
56141;SDS011;42018;48.588;10.836;2024-01-27T06:13:58;17.67;;;12.88;;
56141;SDS011;42018;48.588;10.836;2024-01-27T06:16:44;20.10;;;16.63;;
56141;SDS011;42018;48.588;10.836;2024-01-27T06:19:29;12.95;;;5.82;;
56141;SDS011;42018;48.588;10.836;2024-01-27T06:22:15;7.47;;;3.55;;
56141;SDS011;42018;48.588;10.836;2024-01-27T06:25:00;8.20;;;4.30;;
56141;SDS011;42018;48.588;10.836;2024-01-27T06:27:46;8.30;;;3.85;;
56141;SDS011;42018;48.588;10.836;2024-01-27T06:30:31;10.23;;;5.07;;
56141;SDS011;42018;48.588;10.836;2024-01-27T06:33:17;8.00;;;4.78;;
56141;SDS011;42018;48.588;10.836;2024-01-27T06:36:02;7.85;;;4.50;;
56141;SDS011;42018;48.588;10.836;2024-01-27T06:38:48;9.80;;;4.50;;
56141;SDS011;42018;48.588;10.836;2024-01-27T06:41:34;10.23;;;5.07;;
56141;SDS011;42018;48.588;10.836;2024-01-27T06:44:19;7.22;;;4.00;;
56141;SDS011;42018;48.588;10.836;2024-01-27T06:47:05;7.55;;;3.80;;
56141;SDS011;42018;48.588;10.836;2024-01-27T06:49:50;8.38;;;4.03;;
56141;SDS011;42018;48.588;10.836;2024-01-27T06:52:36;6.80;;;3.83;;
56141;SDS011;42018;48.588;10.836;2024-01-27T06:55:21;6.55;;;3.78;;
56141;SDS011;42018;48.588;10.836;2024-01-27T06:58:07;11.55;;;4.35;;
56141;SDS011;42018;48.588;10.836;2024-01-27T07:00:52;7.88;;;3.88;;
56141;SDS011;42018;48.588;10.836;2024-01-27T07:03:38;8.60;;;4.10;;
56141;SDS011;42018;48.588;10.836;2024-01-27T07:06:24;7.35;;;3.88;;
56141;SDS011;42018;48.588;10.836;2024-01-27T07:09:10;6.20;;;3.50;;
56141;SDS011;42018;48.588;10.836;2024-01-27T07:11:56;8.93;;;4.43;;
56141;SDS011;42018;48.588;10.836;2024-01-27T07:14:42;6.05;;;4.05;;
56141;SDS011;42018;48.588;10.836;2024-01-27T07:17:27;8.13;;;4.00;;
56141;SDS011;42018;48.588;10.836;2024-01-27T07:20:13;10.45;;;4.10;;
56141;SDS011;42018;48.588;10.836;2024-01-27T07:22:58;8.93;;;4.13;;
56141;SDS011;42018;48.588;10.836;2024-01-27T07:25:44;6.00;;;3.60;;
56141;SDS011;42018;48.588;10.836;2024-01-27T07:28:29;7.00;;;4.05;;
56141;SDS011;42018;48.588;10.836;2024-01-27T07:31:15;9.52;;;4.85;;
56141;SDS011;42018;48.588;10.836;2024-01-27T07:34:01;10.80;;;4.57;;
56141;SDS011;42018;48.588;10.836;2024-01-27T07:36:46;9.75;;;4.97;;
56141;SDS011;42018;48.588;10.836;2024-01-27T07:39:34;10.32;;;4.07;;
56141;SDS011;42018;48.588;10.836;2024-01-27T07:42:19;8.85;;;5.15;;
56141;SDS011;42018;48.588;10.836;2024-01-27T07:45:05;10.45;;;4.55;;
56141;SDS011;42018;48.588;10.836;2024-01-27T07:47:51;9.52;;;5.00;;
56141;SDS011;42018;48.588;10.836;2024-01-27T07:50:37;8.20;;;5.20;;
56141;SDS011;42018;48.588;10.836;2024-01-27T07:53:22;10.80;;;4.45;;
56141;SDS011;42018;48.588;10.836;2024-01-27T07:56:08;8.88;;;4.70;;
56141;SDS011;42018;48.588;10.836;2024-01-27T07:58:53;8.90;;;4.78;;
56141;SDS011;42018;48.588;10.836;2024-01-27T08:01:39;7.45;;;4.30;;
56141;SDS011;42018;48.588;10.836;2024-01-27T08:04:25;9.20;;;4.63;;
56141;SDS011;42018;48.588;10.836;2024-01-27T08:07:11;9.68;;;4.50;;
56141;SDS011;42018;48.588;10.836;2024-01-27T08:09:59;11.00;;;4.80;;
56141;SDS011;42018;48.588;10.836;2024-01-27T08:12:45;9.68;;;4.32;;
56141;SDS011;42018;48.588;10.836;2024-01-27T08:15:30;11.90;;;4.93;;
56141;SDS011;42018;48.588;10.836;2024-01-27T08:18:16;10.07;;;4.35;;
56141;SDS011;42018;48.588;10.836;2024-01-27T08:21:02;12.65;;;4.80;;
56141;SDS011;42018;48.588;10.836;2024-01-27T08:23:48;12.45;;;5.40;;
56141;SDS011;42018;48.588;10.836;2024-01-27T08:26:34;9.85;;;5.20;;
56141;SDS011;42018;48.588;10.836;2024-01-27T08:29:20;12.38;;;5.10;;
56141;SDS011;42018;48.588;10.836;2024-01-27T08:32:05;9.50;;;4.93;;
56141;SDS011;42018;48.588;10.836;2024-01-27T08:34:51;10.20;;;4.55;;
56141;SDS011;42018;48.588;10.836;2024-01-27T08:37:36;11.90;;;5.93;;
56141;SDS011;42018;48.588;10.836;2024-01-27T08:40:24;11.70;;;5.65;;
56141;SDS011;42018;48.588;10.836;2024-01-27T08:43:09;10.32;;;4.72;;
56141;SDS011;42018;48.588;10.836;2024-01-27T08:45:55;11.38;;;5.68;;
56141;SDS011;42018;48.588;10.836;2024-01-27T08:48:41;9.63;;;5.10;;
56141;SDS011;42018;48.588;10.836;2024-01-27T08:51:27;9.10;;;5.13;;
56141;SDS011;42018;48.588;10.836;2024-01-27T08:54:13;9.95;;;5.43;;
56141;SDS011;42018;48.588;10.836;2024-01-27T08:56:58;11.65;;;6.28;;
56141;SDS011;42018;48.588;10.836;2024-01-27T08:59:44;12.32;;;6.18;;
56141;SDS011;42018;48.588;10.836;2024-01-27T09:02:29;10.38;;;5.32;;
56141;SDS011;42018;48.588;10.836;2024-01-27T09:05:15;11.05;;;5.63;;
56141;SDS011;42018;48.588;10.836;2024-01-27T09:08:00;12.75;;;6.15;;
56141;SDS011;42018;48.588;10.836;2024-01-27T09:10:46;10.93;;;5.65;;
56141;SDS011;42018;48.588;10.836;2024-01-27T09:13:31;10.43;;;5.95;;
56141;SDS011;42018;48.588;10.836;2024-01-27T09:16:17;13.07;;;6.47;;
56141;SDS011;42018;48.588;10.836;2024-01-27T09:19:03;12.63;;;6.45;;
56141;SDS011;42018;48.588;10.836;2024-01-27T09:21:49;10.20;;;5.43;;
56141;SDS011;42018;48.588;10.836;2024-01-27T09:24:34;8.82;;;5.20;;
56141;SDS011;42018;48.588;10.836;2024-01-27T09:27:20;14.90;;;5.82;;
56141;SDS011;42018;48.588;10.836;2024-01-27T09:30:06;9.98;;;4.93;;
56141;SDS011;42018;48.588;10.836;2024-01-27T09:32:52;11.98;;;4.90;;
56141;SDS011;42018;48.588;10.836;2024-01-27T09:35:37;11.27;;;5.15;;
56141;SDS011;42018;48.588;10.836;2024-01-27T09:38:23;9.23;;;5.22;;
56141;SDS011;42018;48.588;10.836;2024-01-27T09:41:08;9.07;;;4.88;;
56141;SDS011;42018;48.588;10.836;2024-01-27T09:43:55;10.25;;;5.80;;
56141;SDS011;42018;48.588;10.836;2024-01-27T09:46:45;8.15;;;4.93;;
56141;SDS011;42018;48.588;10.836;2024-01-27T09:49:32;10.73;;;5.75;;
56141;SDS011;42018;48.588;10.836;2024-01-27T09:52:19;11.70;;;5.43;;
56141;SDS011;42018;48.588;10.836;2024-01-27T09:55:05;11.63;;;4.63;;
56141;SDS011;42018;48.588;10.836;2024-01-27T09:57:52;9.88;;;4.68;;
56141;SDS011;42018;48.588;10.836;2024-01-27T10:00:38;13.25;;;6.07;;
56141;SDS011;42018;48.588;10.836;2024-01-27T10:03:25;9.95;;;4.82;;
56141;SDS011;42018;48.588;10.836;2024-01-27T10:06:11;9.35;;;4.78;;
56141;SDS011;42018;48.588;10.836;2024-01-27T10:08:57;13.38;;;5.28;;
56141;SDS011;42018;48.588;10.836;2024-01-27T10:11:45;10.50;;;4.38;;
56141;SDS011;42018;48.588;10.836;2024-01-27T10:14:42;9.67;;;4.53;;
56141;SDS011;42018;48.588;10.836;2024-01-27T10:17:30;9.57;;;4.22;;
56141;SDS011;42018;48.588;10.836;2024-01-27T10:20:20;10.50;;;3.65;;
56141;SDS011;42018;48.588;10.836;2024-01-27T10:23:12;8.90;;;4.00;;
56141;SDS011;42018;48.588;10.836;2024-01-27T10:25:58;7.47;;;3.42;;
56141;SDS011;42018;48.588;10.836;2024-01-27T10:28:52;10.90;;;3.60;;
56141;SDS011;42018;48.588;10.836;2024-01-27T10:31:41;8.98;;;3.22;;
56141;SDS011;42018;48.588;10.836;2024-01-27T10:34:26;10.10;;;3.90;;
56141;SDS011;42018;48.588;10.836;2024-01-27T10:37:12;12.52;;;3.90;;
56141;SDS011;42018;48.588;10.836;2024-01-27T10:40:05;12.23;;;3.90;;
56141;SDS011;42018;48.588;10.836;2024-01-27T10:45:46;11.75;;;3.88;;
56141;SDS011;42018;48.588;10.836;2024-01-27T10:48:32;10.18;;;4.20;;
56141;SDS011;42018;48.588;10.836;2024-01-27T10:51:22;13.43;;;6.13;;
56141;SDS011;42018;48.588;10.836;2024-01-27T10:54:18;13.55;;;4.78;;
56141;SDS011;42018;48.588;10.836;2024-01-27T10:57:08;10.75;;;5.40;;
56141;SDS011;42018;48.588;10.836;2024-01-27T10:59:55;12.93;;;4.85;;
56141;SDS011;42018;48.588;10.836;2024-01-27T11:02:42;7.70;;;4.30;;
56141;SDS011;42018;48.588;10.836;2024-01-27T11:05:30;10.68;;;4.70;;
56141;SDS011;42018;48.588;10.836;2024-01-27T11:08:16;11.98;;;5.18;;
56141;SDS011;42018;48.588;10.836;2024-01-27T11:11:04;10.20;;;4.65;;
56141;SDS011;42018;48.588;10.836;2024-01-27T11:13:50;12.43;;;5.15;;
56141;SDS011;42018;48.588;10.836;2024-01-27T11:16:36;12.45;;;4.43;;
56141;SDS011;42018;48.588;10.836;2024-01-27T11:19:28;10.55;;;4.30;;
56141;SDS011;42018;48.588;10.836;2024-01-27T11:22:32;13.13;;;4.82;;
56141;SDS011;42018;48.588;10.836;2024-01-27T11:25:18;13.35;;;4.43;;
56141;SDS011;42018;48.588;10.836;2024-01-27T11:28:11;10.45;;;4.93;;
56141;SDS011;42018;48.588;10.836;2024-01-27T11:31:04;13.27;;;4.50;;
56141;SDS011;42018;48.588;10.836;2024-01-27T11:33:50;13.50;;;4.40;;
56141;SDS011;42018;48.588;10.836;2024-01-27T11:36:39;12.60;;;4.78;;
56141;SDS011;42018;48.588;10.836;2024-01-27T11:39:27;9.43;;;4.40;;
56141;SDS011;42018;48.588;10.836;2024-01-27T11:42:14;14.20;;;5.97;;
56141;SDS011;42018;48.588;10.836;2024-01-27T11:45:00;11.98;;;5.63;;
56141;SDS011;42018;48.588;10.836;2024-01-27T11:47:46;12.98;;;4.03;;
56141;SDS011;42018;48.588;10.836;2024-01-27T11:50:32;10.35;;;3.90;;
56141;SDS011;42018;48.588;10.836;2024-01-27T11:53:17;12.18;;;4.90;;
56141;SDS011;42018;48.588;10.836;2024-01-27T11:56:03;13.52;;;5.13;;
56141;SDS011;42018;48.588;10.836;2024-01-27T11:58:49;9.40;;;4.57;;
56141;SDS011;42018;48.588;10.836;2024-01-27T12:01:36;10.75;;;4.72;;
56141;SDS011;42018;48.588;10.836;2024-01-27T12:04:22;10.82;;;4.97;;
56141;SDS011;42018;48.588;10.836;2024-01-27T12:07:07;9.18;;;4.93;;
56141;SDS011;42018;48.588;10.836;2024-01-27T12:09:54;12.07;;;5.20;;
56141;SDS011;42018;48.588;10.836;2024-01-27T12:12:40;10.43;;;4.88;;
56141;SDS011;42018;48.588;10.836;2024-01-27T12:15:25;9.32;;;4.40;;
56141;SDS011;42018;48.588;10.836;2024-01-27T12:18:11;11.25;;;4.28;;
56141;SDS011;42018;48.588;10.836;2024-01-27T12:20:57;10.13;;;4.63;;
56141;SDS011;42018;48.588;10.836;2024-01-27T12:23:50;11.27;;;4.75;;
56141;SDS011;42018;48.588;10.836;2024-01-27T12:26:40;8.52;;;4.35;;
56141;SDS011;42018;48.588;10.836;2024-01-27T12:29:27;13.45;;;4.85;;
56141;SDS011;42018;48.588;10.836;2024-01-27T12:32:14;15.60;;;6.30;;
56141;SDS011;42018;48.588;10.836;2024-01-27T12:35:06;12.20;;;4.70;;
56141;SDS011;42018;48.588;10.836;2024-01-27T12:37:53;11.00;;;5.00;;
56141;SDS011;42018;48.588;10.836;2024-01-27T12:40:39;11.30;;;4.18;;
56141;SDS011;42018;48.588;10.836;2024-01-27T12:43:24;10.48;;;4.68;;
56141;SDS011;42018;48.588;10.836;2024-01-27T12:46:10;9.23;;;4.45;;
56141;SDS011;42018;48.588;10.836;2024-01-27T12:48:56;8.85;;;3.92;;
56141;SDS011;42018;48.588;10.836;2024-01-27T12:51:42;9.35;;;4.28;;
56141;SDS011;42018;48.588;10.836;2024-01-27T12:54:28;9.10;;;4.65;;
56141;SDS011;42018;48.588;10.836;2024-01-27T12:57:13;10.07;;;5.00;;
56141;SDS011;42018;48.588;10.836;2024-01-27T12:59:59;12.65;;;5.03;;
56141;SDS011;42018;48.588;10.836;2024-01-27T13:02:45;12.55;;;4.45;;
56141;SDS011;42018;48.588;10.836;2024-01-27T13:05:30;7.57;;;3.80;;
56141;SDS011;42018;48.588;10.836;2024-01-27T13:08:17;9.80;;;3.67;;
56141;SDS011;42018;48.588;10.836;2024-01-27T13:11:02;11.82;;;5.00;;
56141;SDS011;42018;48.588;10.836;2024-01-27T13:13:48;11.32;;;4.20;;
56141;SDS011;42018;48.588;10.836;2024-01-27T13:16:34;8.65;;;3.97;;
56141;SDS011;42018;48.588;10.836;2024-01-27T13:19:20;9.30;;;4.85;;
56141;SDS011;42018;48.588;10.836;2024-01-27T13:22:05;9.10;;;4.15;;
56141;SDS011;42018;48.588;10.836;2024-01-27T13:24:51;9.32;;;4.18;;
56141;SDS011;42018;48.588;10.836;2024-01-27T13:27:37;8.48;;;4.38;;
56141;SDS011;42018;48.588;10.836;2024-01-27T13:30:23;11.82;;;4.60;;
56141;SDS011;42018;48.588;10.836;2024-01-27T13:33:09;8.93;;;4.97;;
56141;SDS011;42018;48.588;10.836;2024-01-27T13:35:55;9.93;;;4.93;;
56141;SDS011;42018;48.588;10.836;2024-01-27T13:38:40;10.18;;;3.95;;
56141;SDS011;42018;48.588;10.836;2024-01-27T13:41:26;9.85;;;4.93;;
56141;SDS011;42018;48.588;10.836;2024-01-27T13:44:12;8.85;;;3.70;;
56141;SDS011;42018;48.588;10.836;2024-01-27T13:46:57;13.45;;;4.80;;
56141;SDS011;42018;48.588;10.836;2024-01-27T13:49:46;12.35;;;4.50;;
56141;SDS011;42018;48.588;10.836;2024-01-27T13:52:32;10.15;;;4.43;;
56141;SDS011;42018;48.588;10.836;2024-01-27T13:55:17;9.18;;;3.80;;
56141;SDS011;42018;48.588;10.836;2024-01-27T13:58:03;11.50;;;4.57;;
56141;SDS011;42018;48.588;10.836;2024-01-27T14:00:49;9.85;;;4.25;;
56141;SDS011;42018;48.588;10.836;2024-01-27T14:03:34;10.82;;;3.90;;
56141;SDS011;42018;48.588;10.836;2024-01-27T14:06:20;10.00;;;4.30;;
56141;SDS011;42018;48.588;10.836;2024-01-27T14:09:06;10.32;;;4.18;;
56141;SDS011;42018;48.588;10.836;2024-01-27T14:11:52;9.70;;;3.53;;
56141;SDS011;42018;48.588;10.836;2024-01-27T14:14:38;11.00;;;3.67;;
56141;SDS011;42018;48.588;10.836;2024-01-27T14:17:25;9.80;;;3.72;;
56141;SDS011;42018;48.588;10.836;2024-01-27T14:20:10;11.52;;;5.38;;
56141;SDS011;42018;48.588;10.836;2024-01-27T14:22:57;12.82;;;5.13;;
56141;SDS011;42018;48.588;10.836;2024-01-27T14:25:43;7.65;;;4.00;;
56141;SDS011;42018;48.588;10.836;2024-01-27T14:28:28;13.10;;;3.83;;
56141;SDS011;42018;48.588;10.836;2024-01-27T14:31:14;8.88;;;3.72;;
56141;SDS011;42018;48.588;10.836;2024-01-27T14:34:00;9.15;;;4.07;;
56141;SDS011;42018;48.588;10.836;2024-01-27T14:36:45;12.25;;;3.83;;
56141;SDS011;42018;48.588;10.836;2024-01-27T14:39:31;9.15;;;3.40;;
56141;SDS011;42018;48.588;10.836;2024-01-27T14:42:17;7.63;;;3.42;;
56141;SDS011;42018;48.588;10.836;2024-01-27T14:45:03;9.38;;;3.38;;
56141;SDS011;42018;48.588;10.836;2024-01-27T14:47:49;7.78;;;3.35;;
56141;SDS011;42018;48.588;10.836;2024-01-27T14:50:35;7.78;;;2.92;;
56141;SDS011;42018;48.588;10.836;2024-01-27T14:53:20;6.50;;;2.88;;
56141;SDS011;42018;48.588;10.836;2024-01-27T14:56:09;6.40;;;2.55;;
56141;SDS011;42018;48.588;10.836;2024-01-27T14:59:03;9.65;;;3.15;;
56141;SDS011;42018;48.588;10.836;2024-01-27T15:01:49;6.22;;;2.72;;
56141;SDS011;42018;48.588;10.836;2024-01-27T15:04:36;6.88;;;2.80;;
56141;SDS011;42018;48.588;10.836;2024-01-27T15:07:21;8.68;;;2.92;;
56141;SDS011;42018;48.588;10.836;2024-01-27T15:10:07;5.85;;;2.58;;
56141;SDS011;42018;48.588;10.836;2024-01-27T15:12:53;9.00;;;3.78;;
56141;SDS011;42018;48.588;10.836;2024-01-27T15:15:39;9.60;;;3.08;;
56141;SDS011;42018;48.588;10.836;2024-01-27T15:18:25;9.02;;;3.35;;
56141;SDS011;42018;48.588;10.836;2024-01-27T15:21:10;10.48;;;3.03;;
56141;SDS011;42018;48.588;10.836;2024-01-27T15:23:56;7.40;;;3.10;;
56141;SDS011;42018;48.588;10.836;2024-01-27T15:26:41;7.00;;;2.40;;
56141;SDS011;42018;48.588;10.836;2024-01-27T15:29:27;6.90;;;2.45;;
56141;SDS011;42018;48.588;10.836;2024-01-27T15:32:13;10.32;;;3.20;;
56141;SDS011;42018;48.588;10.836;2024-01-27T15:35:02;7.43;;;2.90;;
56141;SDS011;42018;48.588;10.836;2024-01-27T15:37:48;12.20;;;3.70;;
56141;SDS011;42018;48.588;10.836;2024-01-27T15:40:34;8.75;;;3.65;;
56141;SDS011;42018;48.588;10.836;2024-01-27T15:43:19;8.85;;;3.13;;
56141;SDS011;42018;48.588;10.836;2024-01-27T15:46:05;8.88;;;3.83;;
56141;SDS011;42018;48.588;10.836;2024-01-27T15:48:51;7.18;;;3.38;;
56141;SDS011;42018;48.588;10.836;2024-01-27T15:51:36;8.68;;;4.00;;
56141;SDS011;42018;48.588;10.836;2024-01-27T15:54:22;9.27;;;3.53;;
56141;SDS011;42018;48.588;10.836;2024-01-27T15:57:08;8.07;;;3.47;;
56141;SDS011;42018;48.588;10.836;2024-01-27T15:59:54;10.95;;;4.00;;
56141;SDS011;42018;48.588;10.836;2024-01-27T16:02:40;9.02;;;3.42;;
56141;SDS011;42018;48.588;10.836;2024-01-27T16:05:26;7.63;;;3.42;;
56141;SDS011;42018;48.588;10.836;2024-01-27T16:08:11;8.60;;;3.95;;
56141;SDS011;42018;48.588;10.836;2024-01-27T16:10:57;9.80;;;5.07;;
56141;SDS011;42018;48.588;10.836;2024-01-27T16:13:43;11.77;;;6.82;;
56141;SDS011;42018;48.588;10.836;2024-01-27T16:16:28;10.88;;;6.30;;
56141;SDS011;42018;48.588;10.836;2024-01-27T16:19:14;10.18;;;5.65;;
56141;SDS011;42018;48.588;10.836;2024-01-27T16:22:00;7.95;;;4.80;;
56141;SDS011;42018;48.588;10.836;2024-01-27T16:24:46;12.25;;;5.22;;